Time;durP1;ratioP1;P1;durP2;ratioP2;P2;SDS_P1;SDS_P2;PMS_P1;PMS_P2;Temp;Humidity;BMP_temperature;BMP_pressure;BME280_temperature;BME280_humidity;BME280_pressure;Samples;Min_cycle;Max_cycle;Signal;HPM_P1;HPM_P2
2022/08/14 00:00:16;;;;;;;4.53;3.88;;;22.00;99.90;;;;;;5073015;28;20555;-66
2022/08/14 00:02:43;;;;;;;6.00;4.03;;;22.00;99.90;;;;;;5088117;28;20134;-66
2022/08/14 00:05:10;;;;;;;5.20;3.55;;;21.70;99.90;;;;;;5073989;28;20467;-66
2022/08/14 00:07:36;;;;;;;5.13;3.60;;;21.90;99.90;;;;;;5072784;28;20391;-66
2022/08/14 00:10:04;;;;;;;6.53;3.90;;;21.80;99.90;;;;;;5074023;28;20035;-65
2022/08/14 00:12:32;;;;;;;6.15;4.53;;;21.90;99.90;;;;;;5073903;28;20123;-65
2022/08/14 00:14:59;;;;;;;6.78;4.35;;;21.80;99.90;;;;;;5073800;28;20036;-66
2022/08/14 00:17:25;;;;;;;5.95;4.40;;;21.90;99.90;;;;;;5073748;28;20394;-65
2022/08/14 00:19:51;;;;;;;6.15;4.18;;;21.70;99.90;;;;;;5073557;28;20498;-66
2022/08/14 00:22:17;;;;;;;6.45;4.80;;;21.70;99.90;;;;;;5072676;28;20048;-65
2022/08/14 00:24:44;;;;;;;9.05;4.43;;;21.50;99.90;;;;;;5086909;28;20048;-65
2022/08/14 00:27:10;;;;;;;6.70;4.00;;;21.60;99.90;;;;;;5080831;28;20405;-66
2022/08/14 00:29:35;;;;;;;8.50;5.13;;;21.40;99.90;;;;;;5078133;28;20047;-65
2022/08/14 00:32:01;;;;;;;6.05;4.78;;;21.50;99.90;;;;;;5071585;28;20086;-65
2022/08/14 00:34:27;;;;;;;5.47;4.85;;;21.40;99.90;;;;;;5093669;28;20040;-68
2022/08/14 00:36:52;;;;;;;5.35;4.35;;;21.50;99.90;;;;;;5073790;28;20066;-65
2022/08/14 00:39:18;;;;;;;7.13;4.25;;;21.40;99.90;;;;;;5073663;28;20040;-65
2022/08/14 00:41:45;;;;;;;5.72;4.40;;;21.30;99.90;;;;;;5087505;28;20097;-65
2022/08/14 00:44:11;;;;;;;7.20;4.95;;;21.50;99.90;;;;;;5077702;28;20499;-65
2022/08/14 00:46:37;;;;;;;9.18;5.05;;;21.60;99.90;;;;;;5082058;28;20074;-66
2022/08/14 00:49:03;;;;;;;5.07;4.25;;;21.40;99.90;;;;;;5073100;28;20051;-66
2022/08/14 00:51:31;;;;;;;11.77;5.03;;;22.60;99.90;;;;;;5071936;28;20483;-65
2022/08/14 00:53:57;;;;;;;5.45;4.53;;;21.50;99.90;;;;;;5073941;28;20049;-66
2022/08/14 00:56:23;;;;;;;8.45;5.13;;;21.40;99.90;;;;;;5093614;28;20097;-65
2022/08/14 00:58:49;;;;;;;8.55;5.15;;;21.10;99.90;;;;;;5080005;28;20542;-66
2022/08/14 01:01:17;;;;;;;6.70;5.35;;;21.40;99.90;;;;;;5085897;28;20135;-66
2022/08/14 01:03:44;;;;;;;6.53;5.13;;;21.00;99.90;;;;;;5083223;28;20457;-66
2022/08/14 01:06:13;;;;;;;6.72;4.93;;;21.00;99.90;;;;;;5089766;28;20032;-65
2022/08/14 01:08:40;;;;;;;6.40;5.10;;;20.80;99.90;;;;;;5072966;28;20119;-65
2022/08/14 01:11:06;;;;;;;6.05;5.43;;;20.70;99.90;;;;;;5072971;28;20048;-65
2022/08/14 01:13:38;;;;;;;5.95;5.18;;;20.70;99.90;;;;;;5072625;28;20063;-66
2022/08/14 01:16:08;;;;;;;8.57;5.32;;;20.90;99.90;;;;;;5073500;28;20041;-66
2022/08/14 01:21:39;;;;;;;6.40;4.65;;;20.90;99.90;;;;;;5074614;28;20044;-65
2022/08/14 01:24:14;;;;;;;10.10;4.55;;;20.80;99.90;;;;;;5082003;28;20041;-66
2022/08/14 01:26:40;;;;;;;7.18;5.63;;;20.70;99.90;;;;;;5085647;28;20042;-65
2022/08/14 01:29:06;;;;;;;5.50;4.97;;;20.90;99.90;;;;;;5072284;28;20109;-65
2022/08/14 01:31:38;;;;;;;6.95;5.25;;;20.90;99.90;;;;;;5072281;28;20482;-65
2022/08/14 01:34:05;;;;;;;9.45;5.93;;;20.60;99.90;;;;;;5081896;28;20549;-65
2022/08/14 01:36:35;;;;;;;6.90;5.50;;;21.80;99.90;;;;;;5090981;28;20111;-67
2022/08/14 01:39:06;;;;;;;6.10;5.50;;;20.50;99.90;;;;;;5078970;28;20051;-65
2022/08/14 01:41:35;;;;;;;6.70;5.93;;;21.50;99.90;;;;;;5091165;28;20048;-65
2022/08/14 01:44:06;;;;;;;8.18;6.00;;;20.60;99.90;;;;;;5088438;28;20040;-65
2022/08/14 01:46:35;;;;;;;6.70;5.80;;;20.50;99.90;;;;;;5071314;28;20087;-65
2022/08/14 01:49:05;;;;;;;10.07;5.90;;;20.30;99.90;;;;;;5086599;28;20058;-66
2022/08/14 01:51:31;;;;;;;6.75;5.85;;;20.40;99.90;;;;;;5072222;28;20054;-65
2022/08/14 01:54:04;;;;;;;9.18;6.72;;;20.80;99.90;;;;;;5086551;28;20097;-65
2022/08/14 01:56:39;;;;;;;8.35;6.30;;;20.30;99.90;;;;;;5071070;28;20040;-65
2022/08/14 01:59:27;;;;;;;7.18;6.00;;;20.40;99.90;;;;;;5072080;28;20044;-65
2022/08/14 02:01:55;;;;;;;7.53;6.53;;;20.60;99.90;;;;;;5071856;28;20071;-66
2022/08/14 02:04:24;;;;;;;7.07;5.80;;;20.30;99.90;;;;;;5072192;28;20039;-66
2022/08/14 02:06:50;;;;;;;8.20;6.50;;;20.40;99.90;;;;;;5072200;28;20398;-65
2022/08/14 02:09:17;;;;;;;10.65;6.28;;;20.30;99.90;;;;;;5085993;28;20052;-65
2022/08/14 02:11:43;;;;;;;8.35;6.32;;;20.70;99.90;;;;;;5084117;28;20040;-65
2022/08/14 02:14:11;;;;;;;7.10;6.40;;;20.40;99.90;;;;;;5085451;28;20043;-65
2022/08/14 02:16:43;;;;;;;7.05;5.88;;;20.40;99.90;;;;;;5085314;28;20052;-65
2022/08/14 02:19:13;;;;;;;6.50;5.90;;;21.50;99.90;;;;;;5090266;28;20044;-65
2022/08/14 02:21:40;;;;;;;8.10;6.13;;;20.50;99.90;;;;;;5069125;28;20040;-65
2022/08/14 02:24:06;;;;;;;8.50;5.68;;;20.40;99.90;;;;;;5072059;28;20502;-65
2022/08/14 02:26:36;;;;;;;10.82;6.32;;;21.20;99.90;;;;;;5075172;28;20036;-65
2022/08/14 02:29:08;;;;;;;8.00;6.07;;;21.80;99.90;;;;;;5090795;28;20051;-65
2022/08/14 02:31:36;;;;;;;8.45;6.05;;;20.80;99.90;;;;;;5075288;28;20044;-65
2022/08/14 02:34:28;;;;;;;7.80;5.97;;;20.40;99.90;;;;;;5087908;28;20052;-65
2022/08/14 02:37:01;;;;;;;10.10;6.40;;;20.60;99.90;;;;;;5091952;28;20071;-65
2022/08/14 02:39:27;;;;;;;7.25;6.30;;;20.50;99.90;;;;;;5079148;28;20053;-65
2022/08/14 02:41:53;;;;;;;8.55;6.10;;;20.10;99.90;;;;;;5092582;28;20097;-65
2022/08/14 02:44:21;;;;;;;9.27;6.30;;;20.40;99.90;;;;;;5089580;28;20486;-65
2022/08/14 02:46:48;;;;;;;9.55;6.63;;;20.40;99.90;;;;;;5087518;28;20089;-65
2022/08/14 02:49:14;;;;;;;9.40;6.53;;;20.20;99.90;;;;;;5077528;28;20052;-66
2022/08/14 02:51:40;;;;;;;11.05;5.88;;;20.30;99.90;;;;;;5074371;28;20094;-66
2022/08/14 02:54:08;;;;;;;9.70;7.43;;;20.20;99.90;;;;;;5074002;28;20148;-65
2022/08/14 02:56:37;;;;;;;8.95;6.63;;;20.20;99.90;;;;;;5075604;28;20063;-65
2022/08/14 02:59:04;;;;;;;10.73;7.43;;;20.00;99.90;;;;;;5075189;28;20136;-65
2022/08/14 03:01:30;;;;;;;10.48;7.57;;;20.20;99.90;;;;;;5086050;28;20040;-65
2022/08/14 03:03:55;;;;;;;9.15;6.65;;;20.10;99.90;;;;;;5092618;28;20130;-65
2022/08/14 03:06:24;;;;;;;9.57;6.80;;;20.20;99.90;;;;;;5087823;28;20044;-67
2022/08/14 03:08:53;;;;;;;7.57;6.68;;;20.10;99.90;;;;;;5077102;28;20086;-65
2022/08/14 03:11:20;;;;;;;8.70;7.13;;;20.10;99.90;;;;;;5084214;28;20510;-65
2022/08/14 03:13:48;;;;;;;9.85;7.00;;;19.80;99.90;;;;;;5073829;28;20052;-65
2022/08/14 03:16:17;;;;;;;7.80;6.88;;;20.30;99.90;;;;;;5074273;28;20116;-66
2022/08/14 03:18:44;;;;;;;9.20;7.22;;;20.10;99.90;;;;;;5089421;28;20066;-65
2022/08/14 03:21:16;;;;;;;8.63;7.13;;;19.90;99.90;;;;;;5073403;28;20033;-65
2022/08/14 03:23:44;;;;;;;10.40;7.25;;;20.00;99.90;;;;;;5075068;28;20390;-65
2022/08/14 03:26:17;;;;;;;8.77;6.63;;;20.00;99.90;;;;;;5080829;28;20080;-65
2022/08/14 03:28:46;;;;;;;7.97;7.05;;;19.90;99.90;;;;;;5082155;28;20055;-65
2022/08/14 03:31:12;;;;;;;8.95;6.60;;;19.70;99.90;;;;;;5073233;28;20044;-66
2022/08/14 03:33:39;;;;;;;10.38;7.05;;;19.90;99.90;;;;;;5073255;28;20395;-65
2022/08/14 03:36:16;;;;;;;11.40;7.72;;;20.00;99.90;;;;;;5087314;28;20093;-65
2022/08/14 03:38:43;;;;;;;9.05;7.32;;;19.70;99.90;;;;;;5073388;28;20118;-65
2022/08/14 03:41:15;;;;;;;12.52;8.02;;;19.70;99.90;;;;;;5076000;28;20041;-65
2022/08/14 03:43:49;;;;;;;8.98;7.03;;;19.60;99.90;;;;;;5085292;28;20055;-65
2022/08/14 03:46:15;;;;;;;10.30;7.68;;;19.70;99.90;;;;;;5079096;28;20046;-65
2022/08/14 03:48:43;;;;;;;9.95;7.28;;;20.00;99.90;;;;;;5073299;28;20044;-65
2022/08/14 03:51:12;;;;;;;11.10;7.88;;;19.80;99.90;;;;;;5074242;28;20470;-65
2022/08/14 03:53:40;;;;;;;11.82;8.38;;;19.80;99.90;;;;;;5074555;28;20037;-65
2022/08/14 03:56:08;;;;;;;8.50;7.60;;;20.00;99.90;;;;;;5074285;28;20429;-65
2022/08/14 03:58:37;;;;;;;10.52;7.78;;;19.70;99.90;;;;;;5072759;28;20048;-65
2022/08/14 04:01:03;;;;;;;10.40;8.63;;;19.70;99.90;;;;;;5074010;28;20036;-65
2022/08/14 04:03:28;;;;;;;10.23;7.47;;;19.50;99.90;;;;;;5077485;28;20094;-65
2022/08/14 04:05:54;;;;;;;13.25;8.20;;;19.50;99.90;;;;;;5082628;28;20072;-65
2022/08/14 04:08:20;;;;;;;10.02;7.25;;;19.40;99.90;;;;;;5074093;28;20128;-65
2022/08/14 04:10:46;;;;;;;7.82;6.80;;;19.40;99.90;;;;;;5085470;28;20109;-65
2022/08/14 04:13:17;;;;;;;9.35;7.88;;;19.30;99.90;;;;;;5073946;28;20048;-66
2022/08/14 04:15:46;;;;;;;8.40;7.43;;;19.40;99.90;;;;;;5074281;28;20044;-66
2022/08/14 04:18:12;;;;;;;8.73;7.55;;;19.30;99.90;;;;;;5074043;28;20052;-65
2022/08/14 04:20:41;;;;;;;11.25;8.35;;;19.40;99.90;;;;;;5072540;28;20036;-65
2022/08/14 04:23:07;;;;;;;11.18;8.50;;;19.40;99.90;;;;;;5073827;28;20518;-66
2022/08/14 04:25:35;;;;;;;10.82;8.00;;;19.40;99.90;;;;;;5072396;28;20062;-65
2022/08/14 04:28:04;;;;;;;10.52;7.95;;;19.30;99.90;;;;;;5082961;28;20043;-65
2022/08/14 04:30:32;;;;;;;14.43;8.55;;;19.20;99.90;;;;;;5076406;28;20049;-65
2022/08/14 04:32:58;;;;;;;9.85;8.43;;;19.40;99.90;;;;;;5072676;28;20506;-65
2022/08/14 04:35:23;;;;;;;13.98;8.68;;;19.50;99.90;;;;;;5072302;28;20036;-65
2022/08/14 04:43:35;;;;;;;9.82;7.60;;;19.10;99.90;;;;;;5072331;28;20082;-65
2022/08/14 04:46:12;;;;;;;10.52;8.35;;;19.30;99.90;;;;;;5075318;28;20501;-65
2022/08/14 04:48:39;;;;;;;11.45;8.25;;;19.30;99.90;;;;;;5073265;28;20083;-66
2022/08/14 04:51:06;;;;;;;10.93;9.30;;;19.30;99.90;;;;;;5071615;28;20047;-65
2022/08/14 04:53:34;;;;;;;10.32;8.70;;;19.20;99.90;;;;;;5073491;28;20044;-65
2022/08/14 04:55:59;;;;;;;13.55;8.13;;;19.50;99.90;;;;;;5073083;28;20064;-65
2022/08/14 04:58:27;;;;;;;10.40;8.38;;;19.50;99.90;;;;;;5071714;28;20084;-65
2022/08/14 05:00:54;;;;;;;9.80;8.60;;;19.60;99.90;;;;;;5071621;28;20068;-65
2022/08/14 05:03:22;;;;;;;11.88;9.05;;;19.70;99.90;;;;;;5072433;28;20037;-65
2022/08/14 05:05:49;;;;;;;10.90;9.30;;;19.60;99.90;;;;;;5072850;28;20414;-65
2022/08/14 05:08:15;;;;;;;9.98;8.98;;;19.80;99.90;;;;;;5073281;28;20614;-65
2022/08/14 05:10:44;;;;;;;11.88;9.20;;;19.60;99.90;;;;;;5085108;28;20048;-65
2022/08/14 05:13:12;;;;;;;13.68;9.43;;;19.50;99.90;;;;;;5085004;28;20165;-65
2022/08/14 05:15:39;;;;;;;10.48;9.02;;;19.70;99.90;;;;;;5086272;28;20443;-65
2022/08/14 05:18:13;;;;;;;12.30;8.77;;;19.60;99.90;;;;;;5072499;28;20048;-65
2022/08/14 05:20:45;;;;;;;10.43;9.13;;;19.90;99.90;;;;;;5072681;28;20173;-67
2022/08/14 05:23:17;;;;;;;10.70;8.50;;;19.80;99.90;;;;;;5071778;28;20498;-67
2022/08/14 05:25:44;;;;;;;11.82;8.95;;;19.60;99.90;;;;;;5071612;28;20103;-67
2022/08/14 05:28:18;;;;;;;9.80;8.80;;;19.90;99.90;;;;;;5071178;28;20041;-67
2022/08/14 05:30:45;;;;;;;;;;;20.00;99.90;;;;;;5071600;28;20051;-67
2022/08/14 05:33:13;;;;;;;12.25;8.68;;;20.30;99.90;;;;;;5071623;28;19923;-67
2022/08/14 05:35:39;;;;;;;9.45;8.32;;;20.20;99.90;;;;;;5071223;28;20071;-67
2022/08/14 05:38:11;;;;;;;9.25;7.63;;;20.20;99.90;;;;;;5072425;28;20458;-67
2022/08/14 05:40:37;;;;;;;11.25;7.88;;;20.30;99.90;;;;;;5070915;28;20040;-67
2022/08/14 05:43:03;;;;;;;18.67;10.25;;;20.40;99.90;;;;;;5071128;28;20036;-67
2022/08/14 05:45:28;;;;;;;11.38;7.72;;;21.70;99.90;;;;;;5073763;28;20044;-67
2022/08/14 05:47:54;;;;;;;10.30;8.57;;;20.80;99.90;;;;;;5085939;28;20032;-67
2022/08/14 05:50:19;;;;;;;9.82;7.50;;;20.50;99.90;;;;;;5072546;28;20041;-67
2022/08/14 05:52:47;;;;;;;9.90;7.47;;;21.00;99.90;;;;;;5071187;28;20108;-67
2022/08/14 05:55:13;;;;;;;9.07;7.47;;;22.00;99.90;;;;;;5072404;28;20093;-67
2022/08/14 05:57:50;;;;;;;10.48;8.05;;;22.60;99.90;;;;;;5070552;28;20471;-67
2022/08/14 06:00:18;;;;;;;9.50;7.80;;;21.50;99.90;;;;;;5072338;28;20048;-67
2022/08/14 06:02:44;;;;;;;12.27;7.50;;;21.50;99.90;;;;;;5070912;28;20040;-67
2022/08/14 06:05:09;;;;;;;8.57;6.50;;;21.60;99.90;;;;;;5071579;28;20036;-67
2022/08/14 06:07:36;;;;;;;9.32;7.25;;;21.80;99.90;;;;;;5085573;28;20474;-67
2022/08/14 06:10:03;;;;;;;8.07;6.60;;;22.30;99.90;;;;;;5086637;28;20059;-67
2022/08/14 06:12:29;;;;;;;8.35;6.05;;;22.80;99.90;;;;;;5072043;28;20044;-67
2022/08/14 06:14:54;;;;;;;7.53;6.20;;;23.90;99.90;;;;;;5073851;28;20046;-67
2022/08/14 06:17:20;;;;;;;8.10;6.32;;;24.50;99.90;;;;;;5076075;28;20534;-67
2022/08/14 06:19:45;;;;;;;10.15;6.80;;;25.00;99.90;;;;;;5074888;28;20498;-67
2022/08/14 06:22:11;;;;;;;7.60;5.20;;;25.50;99.90;;;;;;5075933;28;20383;-69
2022/08/14 06:24:36;;;;;;;7.20;5.97;;;26.20;99.90;;;;;;5076156;28;20036;-67
2022/08/14 06:27:03;;;;;;;7.53;5.70;;;26.30;99.90;;;;;;5075848;28;20090;-67
2022/08/14 06:29:29;;;;;;;8.23;5.43;;;26.70;99.90;;;;;;5074837;28;20048;-67
2022/08/14 06:31:54;;;;;;;6.47;5.38;;;27.10;99.90;;;;;;5074713;28;20399;-67
2022/08/14 06:34:20;;;;;;;5.60;4.50;;;29.20;99.90;;;;;;5076060;28;20032;-67
2022/08/14 06:36:45;;;;;;;11.80;5.88;;;28.30;99.90;;;;;;5075746;28;20040;-69
2022/08/14 06:39:11;;;;;;;6.80;4.90;;;28.30;99.90;;;;;;5075638;28;20040;-67
2022/08/14 06:41:39;;;;;;;6.85;5.35;;;28.30;99.90;;;;;;5075621;28;20507;-67
2022/08/14 06:44:04;;;;;;;6.57;5.28;;;29.00;99.90;;;;;;5076169;28;20047;-67
2022/08/14 06:46:30;;;;;;;6.80;4.22;;;28.90;99.90;;;;;;5074706;28;20472;-67
2022/08/14 06:48:55;;;;;;;6.43;5.03;;;29.20;99.90;;;;;;5075605;28;20048;-67
2022/08/14 06:51:21;;;;;;;8.25;4.43;;;29.40;99.90;;;;;;5073974;28;20132;-69
2022/08/14 06:53:46;;;;;;;8.57;4.78;;;29.30;99.90;;;;;;5087290;28;20093;-68
2022/08/14 06:56:13;;;;;;;8.10;4.57;;;29.70;99.90;;;;;;5076761;28;20029;-67
2022/08/14 06:58:38;;;;;;;8.70;5.03;;;30.20;99.90;;;;;;5073921;28;20044;-67
2022/08/14 07:06:32;;;;;;;6.25;4.50;;;30.90;99.90;;;;;;5078552;28;20044;-68
2022/08/14 07:08:58;;;;;;;5.60;4.57;;;30.70;99.90;;;;;;5091243;28;20043;-68
2022/08/14 07:11:23;;;;;;;5.28;4.40;;;31.20;99.90;;;;;;5082867;28;20043;-67
2022/08/14 07:13:49;;;;;;;6.03;4.53;;;29.50;99.90;;;;;;5074172;28;20039;-67
2022/08/14 07:16:14;;;;;;;9.43;5.22;;;29.60;99.90;;;;;;5074951;28;20047;-67
2022/08/14 07:18:40;;;;;;;5.57;4.40;;;28.30;99.90;;;;;;5074797;28;20044;-68
2022/08/14 07:21:07;;;;;;;6.13;4.68;;;27.40;99.90;;;;;;5074868;28;20037;-67
2022/08/14 07:23:33;;;;;;;5.90;4.68;;;26.80;99.90;;;;;;5074931;28;20044;-68
2022/08/14 07:26:00;;;;;;;6.90;5.13;;;26.60;99.90;;;;;;5074093;28;20066;-67
2022/08/14 07:28:33;;;;;;;7.15;5.13;;;27.80;99.90;;;;;;5073698;28;20048;-68
2022/08/14 07:31:00;;;;;;;9.63;5.70;;;26.20;99.90;;;;;;5074504;28;20028;-67
2022/08/14 07:33:30;;;;;;;6.63;4.70;;;26.40;99.90;;;;;;5074872;28;20060;-67
2022/08/14 07:35:58;;;;;;;8.65;5.18;;;26.30;99.90;;;;;;5073783;28;20095;-67
2022/08/14 07:38:23;;;;;;;6.45;4.68;;;27.30;99.90;;;;;;5074667;28;20124;-67
2022/08/14 07:40:50;;;;;;;6.72;5.18;;;25.70;99.90;;;;;;5073431;28;20111;-67
2022/08/14 07:43:16;;;;;;;6.13;4.68;;;25.80;99.90;;;;;;5074609;28;20128;-67
2022/08/14 07:45:42;;;;;;;6.00;5.40;;;26.00;99.90;;;;;;5073549;28;20068;-67
2022/08/14 07:48:08;;;;;;;5.63;4.60;;;27.50;99.90;;;;;;5073766;28;20091;-67
2022/08/14 07:50:34;;;;;;;5.93;5.32;;;26.00;99.90;;;;;;5074661;28;20473;-67
2022/08/14 07:53:00;;;;;;;7.32;5.40;;;25.80;99.90;;;;;;5074248;28;20068;-67
2022/08/14 07:55:27;;;;;;;8.57;5.75;;;25.70;99.90;;;;;;5085895;28;20083;-67
2022/08/14 07:57:53;;;;;;;7.07;5.35;;;25.80;99.90;;;;;;5075435;28;20521;-68
2022/08/14 08:00:21;;;;;;;6.07;5.25;;;26.40;99.90;;;;;;5074525;28;20084;-67
2022/08/14 08:02:51;;;;;;;7.20;4.72;;;26.20;99.90;;;;;;5074117;28;20109;-67
2022/08/14 08:05:17;;;;;;;7.80;5.13;;;25.70;99.90;;;;;;5082556;28;20036;-68
2022/08/14 08:07:45;;;;;;;5.80;4.97;;;26.90;99.90;;;;;;5078360;28;20055;-67
2022/08/14 08:10:32;;;;;;;6.53;4.93;;;26.00;99.90;;;;;;5072834;28;20044;-67
2022/08/14 08:13:13;;;;;;;6.40;5.25;;;26.10;99.90;;;;;;5074045;28;20066;-67
2022/08/14 08:15:41;;;;;;;7.50;5.22;;;26.00;99.90;;;;;;5075144;28;20389;-67
2022/08/14 08:18:08;;;;;;;6.40;4.57;;;26.00;99.90;;;;;;5073100;28;20563;-67
2022/08/14 08:20:37;;;;;;;4.88;4.18;;;25.80;99.90;;;;;;5073642;28;20065;-67
2022/08/14 08:23:04;;;;;;;16.10;5.60;;;27.30;99.90;;;;;;5073840;28;20044;-68
2022/08/14 08:25:36;;;;;;;6.28;4.63;;;28.00;99.90;;;;;;5073920;28;20123;-67
2022/08/14 08:28:06;;;;;;;7.32;4.72;;;26.10;99.90;;;;;;5072366;28;20047;-67
2022/08/14 08:30:33;;;;;;;6.13;5.53;;;26.10;99.90;;;;;;5073234;28;20047;-67
2022/08/14 08:33:00;;;;;;;6.25;4.88;;;26.30;99.90;;;;;;5073830;28;20041;-67
2022/08/14 08:35:29;;;;;;;6.72;4.93;;;26.40;99.90;;;;;;5072221;28;20043;-67
2022/08/14 08:38:01;;;;;;;6.32;5.15;;;26.50;99.90;;;;;;5072316;28;20044;-68
2022/08/14 08:40:38;;;;;;;5.72;4.15;;;26.70;99.90;;;;;;5072303;28;20100;-67
2022/08/14 08:43:06;;;;;;;6.28;4.30;;;28.30;99.90;;;;;;5072820;28;20059;-68
2022/08/14 08:45:34;;;;;;;7.63;4.68;;;26.80;99.90;;;;;;5071935;28;20083;-67
2022/08/14 08:48:01;;;;;;;6.28;4.85;;;26.90;99.90;;;;;;5073110;28;20391;-68
2022/08/14 08:50:34;;;;;;;8.43;4.38;;;26.70;99.90;;;;;;5079445;28;20036;-68
2022/08/14 08:53:05;;;;;;;9.13;4.75;;;27.10;99.90;;;;;;5073407;28;20033;-68
2022/08/14 08:55:37;;;;;;;5.60;4.63;;;26.70;99.90;;;;;;5071794;28;20079;-67
2022/08/14 08:58:11;;;;;;;7.47;4.50;;;27.00;99.90;;;;;;5072265;28;20182;-67
2022/08/14 09:00:40;;;;;;;7.18;5.18;;;27.10;99.90;;;;;;5072532;28;20056;-67
2022/08/14 09:03:07;;;;;;;5.40;4.30;;;28.30;99.90;;;;;;5071330;28;20081;-67
2022/08/14 09:05:35;;;;;;;5.28;4.63;;;27.00;99.90;;;;;;5072542;28;20064;-67
2022/08/14 09:08:24;;;;;;;6.53;4.05;;;27.00;99.90;;;;;;5071025;28;20044;-67
2022/08/14 09:10:51;;;;;;;4.80;4.28;;;28.30;99.90;;;;;;5072389;28;20111;-67
2022/08/14 09:13:18;;;;;;;4.57;4.18;;;27.70;99.90;;;;;;5070955;28;20040;-68
2022/08/14 09:15:46;;;;;;;7.00;4.80;;;27.30;99.90;;;;;;5088095;28;20051;-67
2022/08/14 09:18:14;;;;;;;8.07;4.50;;;29.20;99.90;;;;;;5080352;28;20066;-68
2022/08/14 09:20:41;;;;;;;6.13;4.00;;;27.20;99.90;;;;;;5083871;28;20033;-68
2022/08/14 09:23:09;;;;;;;6.65;4.63;;;27.20;99.90;;;;;;5081465;28;20032;-68
2022/08/14 09:25:36;;;;;;;5.60;4.00;;;27.60;99.90;;;;;;5074370;28;20046;-68
2022/08/14 09:28:03;;;;;;;5.78;4.63;;;27.40;99.90;;;;;;5089699;28;20504;-68
2022/08/14 09:30:32;;;;;;;5.15;4.20;;;27.70;99.90;;;;;;5086962;28;20048;-68
2022/08/14 09:33:01;;;;;;;7.88;4.13;;;28.70;99.90;;;;;;5078714;28;20028;-68
2022/08/14 09:35:48;;;;;;;5.65;4.43;;;27.90;99.90;;;;;;5071980;28;20129;-68
2022/08/14 09:38:20;;;;;;;4.93;4.20;;;27.60;99.90;;;;;;5080858;28;20103;-68
2022/08/14 09:41:09;;;;;;;9.07;4.03;;;27.90;99.90;;;;;;5090127;28;20043;-68
2022/08/14 09:44:06;;;;;;;5.25;3.88;;;28.00;99.90;;;;;;5089479;28;20035;-68
2022/08/14 09:46:33;;;;;;;7.30;4.88;;;27.70;99.90;;;;;;5062903;28;20044;-68
2022/08/14 09:49:00;;;;;;;6.78;4.55;;;27.80;99.90;;;;;;5088548;28;20047;-68
2022/08/14 09:51:28;;;;;;;6.18;4.03;;;29.20;99.90;;;;;;5088442;28;20494;-68
2022/08/14 09:54:10;;;;;;;4.47;3.92;;;29.50;99.90;;;;;;5090587;28;20084;-69
2022/08/14 09:56:46;;;;;;;4.90;3.90;;;28.00;99.90;;;;;;5070500;28;20036;-68
2022/08/14 09:59:16;;;;;;;7.25;3.70;;;28.30;99.90;;;;;;5071376;28;20048;-68
2022/08/14 10:01:43;;;;;;;5.80;4.18;;;28.50;99.90;;;;;;5070597;28;20520;-68
2022/08/14 10:04:24;;;;;;;3.97;3.50;;;28.30;99.90;;;;;;5072129;28;20044;-67
2022/08/14 10:06:50;;;;;;;3.95;3.40;;;28.10;99.90;;;;;;5070711;28;20574;-68
2022/08/14 10:09:17;;;;;;;6.05;4.13;;;28.20;99.90;;;;;;5073049;28;20123;-69
2022/08/14 10:11:54;;;;;;;5.53;3.97;;;28.20;99.90;;;;;;5076973;28;20067;-68
2022/08/14 10:14:23;;;;;;;4.40;3.40;;;28.30;99.90;;;;;;5072139;28;20032;-68
2022/08/14 10:16:54;;;;;;;5.38;3.83;;;29.20;99.90;;;;;;5072007;28;20101;-68
2022/08/14 10:19:27;;;;;;;8.38;3.58;;;28.30;99.90;;;;;;5071756;28;20066;-68
2022/08/14 10:22:02;;;;;;;4.70;3.53;;;29.90;99.90;;;;;;5072036;28;20033;-68
2022/08/14 10:24:38;;;;;;;6.18;4.35;;;28.60;99.90;;;;;;5071871;28;20098;-68
2022/08/14 10:27:22;;;;;;;3.78;2.90;;;28.60;99.90;;;;;;5071837;28;20115;-68
2022/08/14 10:30:00;;;;;;;3.60;2.88;;;28.80;99.90;;;;;;5070351;28;20093;-68
2022/08/14 10:32:26;;;;;;;5.63;2.72;;;30.20;99.90;;;;;;5071613;28;20516;-68
2022/08/14 10:35:05;;;;;;;4.63;2.65;;;29.50;99.90;;;;;;5071817;28;20444;-69
2022/08/14 10:37:38;;;;;;;5.88;2.83;;;29.00;99.90;;;;;;5072207;28;20055;-67
2022/08/14 10:40:06;;;;;;;6.50;3.13;;;29.90;99.90;;;;;;5071834;28;20116;-68
2022/08/14 10:42:40;;;;;;;7.72;3.63;;;28.40;99.90;;;;;;5070314;28;20047;-67
2022/08/14 10:45:30;;;;;;;5.32;4.18;;;28.60;99.90;;;;;;5070453;28;20079;-67
2022/08/14 10:47:56;;;;;;;4.20;3.45;;;28.50;99.90;;;;;;5070513;28;20032;-67
2022/08/14 10:50:37;;;;;;;4.53;3.13;;;28.70;99.90;;;;;;5070851;28;20040;-67
2022/08/14 10:53:06;;;;;;;4.18;3.60;;;28.60;99.90;;;;;;5071686;28;20491;-69
2022/08/14 10:55:40;;;;;;;4.07;3.20;;;30.50;99.90;;;;;;5071621;28;20102;-67
2022/08/14 10:58:11;;;;;;;5.53;4.20;;;28.80;99.90;;;;;;5071638;28;20120;-67
2022/08/14 11:00:39;;;;;;;4.78;3.70;;;29.10;99.90;;;;;;5070605;28;20080;-67
2022/08/14 11:03:12;;;;;;;4.55;3.88;;;29.10;99.90;;;;;;5073738;28;20036;-68
2022/08/14 11:05:43;;;;;;;6.20;3.30;;;29.90;99.90;;;;;;5075247;28;20490;-67
2022/08/14 11:08:11;;;;;;;4.00;2.70;;;30.60;99.90;;;;;;5075114;28;20068;-68
2022/08/14 11:10:54;;;;;;;6.28;3.45;;;29.10;99.90;;;;;;5075299;28;20045;-67
2022/08/14 11:13:26;;;;;;;5.50;3.17;;;30.10;99.90;;;;;;5075292;28;20043;-68
2022/08/14 11:15:55;;;;;;;4.15;2.92;;;29.00;99.90;;;;;;5081903;28;20052;-68
2022/08/14 11:18:20;;;;;;;5.03;3.67;;;28.90;99.90;;;;;;5074931;28;20120;-68
2022/08/14 11:20:53;;;;;;;4.45;3.15;;;29.00;99.90;;;;;;5075067;28;20640;-67
2022/08/14 11:23:21;;;;;;;5.00;3.35;;;29.20;99.90;;;;;;5075355;28;20399;-67
2022/08/14 11:25:48;;;;;;;6.88;3.15;;;30.40;99.90;;;;;;5075030;28;20059;-67
2022/08/14 11:28:15;;;;;;;3.50;3.05;;;28.90;99.90;;;;;;5074623;28;20036;-68
2022/08/14 11:30:43;;;;;;;4.60;3.03;;;29.00;99.90;;;;;;5074583;28;20406;-67
2022/08/14 11:33:09;;;;;;;4.95;3.30;;;28.80;99.90;;;;;;5073634;28;20044;-68
2022/08/14 11:35:38;;;;;;;4.22;3.17;;;28.90;99.90;;;;;;5074982;28;20131;-68
2022/08/14 11:38:06;;;;;;;7.00;3.80;;;29.10;99.90;;;;;;5074715;28;20029;-68
2022/08/14 11:40:37;;;;;;;4.72;3.70;;;29.00;99.90;;;;;;5073353;28;20037;-68
2022/08/14 11:43:06;;;;;;;6.72;3.33;;;30.50;99.90;;;;;;5070928;28;20138;-68
2022/08/14 11:45:35;;;;;;;4.07;2.40;;;30.50;99.90;;;;;;5071510;28;20098;-68
2022/08/14 11:48:15;;;;;;;3.75;3.10;;;31.00;99.90;;;;;;5069266;28;20045;-68
2022/08/14 11:50:42;;;;;;;4.15;3.00;;;29.20;99.90;;;;;;5071009;28;20086;-69
2022/08/14 11:53:19;;;;;;;3.90;2.50;;;29.10;99.90;;;;;;5070850;28;20094;-68
2022/08/14 11:55:45;;;;;;;4.25;2.50;;;29.30;99.90;;;;;;5069630;28;20041;-68
2022/08/14 11:58:12;;;;;;;3.28;2.50;;;30.90;99.90;;;;;;5070560;28;20071;-68
2022/08/14 12:00:53;;;;;;;4.25;2.78;;;29.30;99.90;;;;;;5052516;28;20044;-68
2022/08/14 12:03:20;;;;;;;5.40;3.53;;;30.10;99.90;;;;;;5069523;28;20118;-67
2022/08/14 12:05:45;;;;;;;4.30;2.72;;;31.20;99.90;;;;;;5070696;28;20037;-67
2022/08/14 12:08:11;;;;;;;4.32;2.90;;;29.30;99.90;;;;;;5069959;28;20048;-68
2022/08/14 12:10:39;;;;;;;4.68;2.95;;;30.80;99.90;;;;;;5070601;28;20040;-68
2022/08/14 12:13:17;;;;;;;4.55;3.60;;;29.30;99.90;;;;;;5068970;28;20087;-68
2022/08/14 12:15:48;;;;;;;6.68;3.67;;;30.70;99.90;;;;;;5070838;28;20032;-68
2022/08/14 12:18:14;;;;;;;4.65;3.60;;;29.60;99.90;;;;;;5069092;28;20048;-69
2022/08/14 12:20:41;;;;;;;3.80;3.38;;;30.50;99.90;;;;;;5070063;28;20507;-67
2022/08/14 12:23:23;;;;;;;6.68;4.25;;;29.10;99.90;;;;;;5080412;28;20036;-68
2022/08/14 12:25:49;;;;;;;6.95;3.78;;;30.20;99.90;;;;;;5076119;28;20559;-68
2022/08/14 12:28:15;;;;;;;4.18;3.65;;;29.50;99.90;;;;;;5089315;28;20498;-68
2022/08/14 12:30:43;;;;;;;6.75;3.72;;;29.30;99.90;;;;;;5072605;28;20033;-68
2022/08/14 12:33:25;;;;;;;5.00;3.72;;;29.40;99.90;;;;;;5070009;28;20438;-68
2022/08/14 12:35:53;;;;;;;5.85;3.50;;;29.30;99.90;;;;;;5074237;28;20046;-68
2022/08/14 12:38:29;;;;;;;4.35;3.42;;;29.40;99.90;;;;;;5080027;28;20040;-68
2022/08/14 12:40:55;;;;;;;4.47;3.83;;;29.80;99.90;;;;;;5079243;28;20372;-68
2022/08/14 12:43:20;;;;;;;5.97;3.70;;;30.50;99.90;;;;;;5069706;28;20052;-68
2022/08/14 12:45:53;;;;;;;5.57;4.15;;;30.80;99.90;;;;;;5068945;28;20633;-67
2022/08/14 12:48:20;;;;;;;5.82;3.78;;;29.90;99.90;;;;;;5069188;28;20052;-68
2022/08/14 12:50:46;;;;;;;5.70;3.42;;;30.80;99.90;;;;;;5069663;28;20041;-67
2022/08/14 12:53:12;;;;;;;5.18;3.70;;;31.10;99.90;;;;;;5069762;28;20383;-68
2022/08/14 12:55:40;;;;;;;3.92;3.33;;;29.20;99.90;;;;;;5069336;28;20043;-68
2022/08/14 12:58:07;;;;;;;3.97;3.15;;;29.20;99.90;;;;;;5069083;28;20154;-68
2022/08/14 13:00:45;;;;;;;5.82;3.55;;;30.60;99.90;;;;;;5069327;28;20123;-67
2022/08/14 13:03:23;;;;;;;4.57;4.00;;;29.30;99.90;;;;;;5068199;28;20040;-67
2022/08/14 13:05:49;;;;;;;4.65;3.72;;;29.20;99.90;;;;;;5067859;28;20036;-68
2022/08/14 13:08:15;;;;;;;5.22;3.90;;;30.10;99.90;;;;;;5069224;28;20368;-67